createdAt,value
2019-04-27T00:02:09.401Z,11.15
2019-04-27T00:04:56.812Z,11.13
2019-04-27T00:07:44.224Z,11.25
2019-04-27T00:10:33.421Z,11.30
2019-04-27T00:16:05.613Z,11.06
2019-04-27T00:18:49.700Z,11.17
2019-04-27T00:21:38.087Z,11.28
2019-04-27T00:24:06.448Z,11.28
2019-04-27T00:26:34.731Z,11.19
2019-04-27T00:29:03.829Z,11.17
2019-04-27T00:31:33.634Z,11.19
2019-04-27T00:34:03.575Z,11.16
2019-04-27T00:36:51.186Z,11.15
2019-04-27T00:39:38.597Z,11.12
2019-04-27T00:44:45.862Z,11.14
2019-04-27T00:47:14.154Z,11.04
2019-04-27T00:49:44.230Z,11.17
2019-04-27T00:52:13.899Z,11.22
2019-04-27T00:54:44.004Z,11.22
2019-04-27T00:57:33.112Z,11.06
2019-04-27T01:00:20.759Z,11.01
2019-04-27T01:08:17.041Z,10.99
2019-04-27T01:10:45.344Z,10.94
2019-04-27T01:13:13.614Z,10.77
2019-04-27T01:15:43.046Z,10.73
2019-04-27T01:18:15.398Z,10.73
2019-04-27T01:20:41.916Z,10.75
2019-04-27T01:23:10.822Z,10.79
2019-04-27T01:25:59.737Z,10.83
2019-04-27T01:28:48.960Z,10.87
2019-04-27T01:34:06.116Z,10.78
2019-04-27T01:36:34.403Z,10.82
2019-04-27T01:41:41.682Z,10.78
2019-04-27T01:44:10.049Z,10.78
2019-04-27T01:46:39.616Z,10.72
2019-04-27T01:49:09.210Z,10.72
2019-04-27T01:51:39.111Z,10.75
2019-04-27T01:56:49.147Z,10.72
2019-04-27T01:59:17.420Z,10.70
2019-04-27T02:02:04.810Z,10.72
2019-04-27T02:07:12.129Z,10.72
2019-04-27T02:09:40.408Z,10.73
2019-04-27T02:12:09.361Z,10.74
2019-04-27T02:14:39.061Z,10.68
2019-04-27T02:17:50.927Z,10.71
2019-04-27T02:20:19.758Z,10.72
2019-04-27T02:22:50.746Z,10.68
2019-04-27T02:25:20.951Z,10.71
2019-04-27T02:30:46.966Z,10.74
2019-04-27T02:33:34.377Z,10.72
2019-04-27T02:36:02.681Z,10.71
2019-04-27T02:38:30.955Z,10.74
2019-04-27T02:41:39.996Z,10.73
2019-04-27T02:44:30.116Z,10.69
2019-04-27T02:47:00.342Z,10.66
2019-04-27T02:49:30.428Z,10.67
2019-04-27T02:52:19.699Z,10.70
2019-04-27T02:54:50.266Z,10.69
2019-04-27T02:57:19.837Z,10.64
2019-04-27T02:59:50.018Z,10.66
2019-04-27T03:04:56.553Z,10.59
2019-04-27T03:07:24.835Z,10.58
2019-04-27T03:09:53.124Z,10.56
2019-04-27T03:15:20.556Z,10.65
2019-04-27T03:18:09.910Z,10.59
2019-04-27T03:23:19.887Z,10.54
2019-04-27T03:26:06.716Z,10.52
2019-04-27T03:28:34.993Z,10.52
2019-04-27T03:31:03.348Z,10.45
2019-04-27T03:33:32.672Z,10.37
2019-04-27T03:36:02.963Z,10.29
2019-04-27T03:38:31.634Z,10.32
2019-04-27T03:41:00.579Z,10.36
2019-04-27T03:43:30.391Z,10.37
2019-04-27T03:46:00.557Z,10.38
2019-04-27T03:48:29.549Z,10.34
2019-04-27T03:51:19.927Z,10.30
2019-04-27T03:59:34.853Z,10.14
2019-04-27T04:02:03.154Z,10.12
2019-04-27T04:04:32.790Z,10.08
2019-04-27T04:07:20.800Z,10.07
2019-04-27T04:09:50.265Z,10.10
2019-04-27T04:12:40.049Z,10.09
2019-04-27T04:17:49.553Z,10.04
2019-04-27T04:20:19.577Z,10.12
2019-04-27T04:22:47.324Z,10.02
2019-04-27T04:25:15.604Z,10.03
2019-04-27T04:27:43.894Z,10.12
2019-04-27T04:30:12.712Z,10.13
2019-04-27T04:32:42.260Z,10.22
2019-04-27T04:35:32.615Z,10.23
2019-04-27T04:38:13.144Z,9.98
2019-04-27T04:41:00.536Z,9.99
2019-04-27T04:43:49.071Z,9.92
2019-04-27T04:46:39.778Z,10.02
2019-04-27T04:49:09.288Z,10.02
2019-04-27T04:51:37.072Z,9.99
2019-04-27T04:54:05.376Z,10.01
2019-04-27T04:56:33.632Z,9.91
2019-04-27T04:59:01.917Z,9.98
2019-04-27T05:01:30.203Z,9.81
2019-04-27T05:03:58.997Z,9.89
2019-04-27T05:06:29.266Z,9.80
2019-04-27T05:08:59.462Z,9.68
2019-04-27T05:11:29.759Z,9.69
2019-04-27T05:13:59.336Z,9.76
2019-04-27T05:16:28.707Z,9.73
2019-04-27T05:18:57.056Z,9.69
2019-04-27T05:21:44.446Z,9.77
2019-04-27T05:24:12.727Z,9.85
2019-04-27T05:26:41.009Z,9.76
2019-04-27T05:29:09.342Z,9.58
2019-04-27T05:31:38.848Z,9.70
2019-04-27T05:34:09.398Z,9.76
2019-04-27T05:36:43.551Z,9.82
2019-04-27T05:39:09.608Z,9.85
2019-04-27T05:41:39.308Z,9.89
2019-04-27T05:52:33.786Z,9.72
2019-04-27T05:55:02.061Z,9.52
2019-04-27T05:57:31.442Z,9.55
2019-04-27T06:00:02.325Z,9.58
2019-04-27T06:02:30.557Z,9.80
2019-04-27T06:05:00.011Z,9.94
2019-04-27T06:07:29.608Z,10.07
2019-04-27T06:09:59.829Z,10.08
2019-04-27T06:12:29.659Z,10.14
2019-04-27T06:14:59.963Z,10.20
2019-04-27T06:17:40.900Z,10.22
2019-04-27T06:20:09.261Z,10.32
2019-04-27T06:22:38.992Z,10.44
2019-04-27T06:25:11.305Z,10.41
2019-04-27T06:27:39.581Z,10.54
2019-04-27T06:30:09.330Z,10.58
2019-04-27T06:32:39.319Z,10.69
2019-04-27T06:35:40.971Z,10.85
2019-04-27T06:38:10.189Z,10.80
2019-04-27T06:40:39.276Z,10.70
2019-04-27T06:43:08.650Z,10.73
2019-04-27T06:45:38.803Z,10.86
2019-04-27T06:48:09.473Z,10.86
2019-04-27T06:50:38.986Z,10.94
2019-04-27T06:53:09.089Z,11.23
2019-04-27T06:55:39.188Z,11.36
2019-04-27T06:58:08.995Z,11.66
2019-04-27T07:00:39.418Z,11.54
2019-04-27T07:03:10.298Z,11.50
2019-04-27T07:05:38.806Z,11.48
2019-04-27T07:08:08.987Z,11.56
2019-04-27T07:10:39.150Z,11.59
2019-04-27T07:13:09.368Z,11.69
2019-04-27T07:15:38.700Z,12.15
2019-04-27T07:18:09.609Z,12.16
2019-04-27T07:20:38.872Z,12.38
2019-04-27T07:23:09.412Z,12.20
2019-04-27T07:25:38.889Z,12.61
2019-04-27T07:28:09.156Z,12.64
2019-04-27T07:30:38.824Z,12.43
2019-04-27T07:33:08.755Z,12.84
2019-04-27T07:35:39.276Z,12.69
2019-04-27T07:38:09.717Z,12.92
2019-04-27T07:40:40.013Z,12.90
2019-04-27T07:45:56.949Z,12.62
2019-04-27T07:48:25.227Z,12.78
2019-04-27T07:50:53.508Z,12.87
2019-04-27T07:53:21.800Z,12.99
2019-04-27T07:55:50.095Z,13.03
2019-04-27T07:58:21.909Z,13.42
2019-04-27T08:00:49.201Z,13.34
2019-04-27T08:03:19.525Z,13.42
2019-04-27T08:05:49.103Z,13.58
2019-04-27T08:08:18.983Z,13.78
2019-04-27T08:10:50.141Z,13.60
2019-04-27T08:13:19.502Z,13.55
2019-04-27T08:15:49.633Z,13.39
2019-04-27T08:18:18.938Z,13.83
2019-04-27T08:20:49.076Z,13.56
2019-04-27T08:23:19.547Z,13.59
2019-04-27T08:25:48.986Z,14.07
2019-04-27T08:28:38.634Z,13.78
2019-04-27T08:31:26.083Z,14.00
2019-04-27T08:33:54.366Z,14.21
2019-04-27T08:36:22.667Z,14.27
2019-04-27T08:38:50.951Z,14.63
2019-04-27T08:41:19.661Z,14.63
2019-04-27T08:43:49.275Z,14.82
2019-04-27T08:46:18.666Z,14.98
2019-04-27T08:48:49.006Z,15.06
2019-04-27T08:51:19.463Z,15.03
2019-04-27T08:53:47.667Z,15.15
2019-04-27T08:56:15.948Z,14.88
2019-04-27T08:58:44.232Z,15.12
2019-04-27T09:01:12.504Z,15.51
2019-04-27T09:03:40.794Z,15.85
2019-04-27T09:11:46.209Z,15.57
2019-04-27T09:22:40.665Z,16.16
2019-04-27T09:25:09.466Z,16.08
2019-04-27T09:27:39.136Z,16.00
2019-04-27T09:32:46.558Z,15.63
2019-04-27T09:35:16.159Z,15.83
2019-04-27T09:37:45.864Z,15.96
2019-04-27T09:40:15.082Z,16.18
2019-04-27T09:42:43.351Z,16.33
2019-04-27T09:45:11.710Z,16.34
2019-04-27T09:47:39.992Z,16.13
2019-04-27T09:50:08.431Z,16.09
2019-04-27T09:52:36.705Z,16.11
2019-04-27T09:55:38.569Z,16.37
2019-04-27T09:58:06.863Z,16.31
2019-04-27T10:00:36.454Z,16.47
2019-04-27T10:03:06.595Z,16.46
2019-04-27T10:05:36.695Z,16.33
2019-04-27T10:08:06.183Z,16.66
2019-04-27T10:10:36.963Z,16.97
2019-04-27T10:13:06.824Z,17.25
2019-04-27T10:15:35.646Z,17.60
2019-04-27T10:18:06.088Z,17.72
2019-04-27T10:20:39.010Z,18.01
2019-04-27T10:23:06.207Z,18.13
2019-04-27T10:28:37.269Z,18.08
2019-04-27T10:31:07.084Z,18.29
2019-04-27T10:33:36.723Z,18.02
2019-04-27T10:36:06.479Z,17.99
2019-04-27T10:38:35.958Z,18.12
2019-04-27T10:41:05.685Z,18.16
2019-04-27T10:43:34.422Z,18.39
2019-04-27T10:46:02.693Z,17.92
2019-04-27T10:48:30.968Z,17.80
2019-04-27T10:50:59.239Z,17.64
2019-04-27T10:53:27.508Z,17.66
2019-04-27T10:55:56.579Z,18.06
2019-04-27T10:58:38.683Z,18.16
2019-04-27T11:04:05.945Z,17.83
2019-04-27T11:09:23.248Z,17.81
2019-04-27T11:11:51.513Z,17.64
2019-04-27T11:14:19.778Z,17.72
2019-04-27T11:16:48.071Z,17.99
2019-04-27T11:19:16.920Z,18.67
2019-04-27T11:21:46.344Z,18.78
2019-04-27T11:24:14.609Z,18.48
2019-04-27T11:26:42.903Z,18.26
2019-04-27T11:29:11.170Z,18.14
2019-04-27T11:31:39.516Z,18.54
2019-04-27T11:39:36.002Z,18.29
2019-04-27T11:42:05.747Z,18.68
2019-04-27T11:44:35.857Z,18.24
2019-04-27T11:47:05.835Z,17.96
2019-04-27T11:49:35.870Z,18.36
2019-04-27T11:52:05.728Z,18.37
2019-04-27T11:54:35.609Z,18.65
2019-04-27T11:57:04.099Z,18.76
2019-04-27T11:59:32.366Z,18.96
2019-04-27T12:02:00.651Z,19.07
2019-04-27T12:04:28.924Z,19.12
2019-04-27T12:06:57.186Z,19.25
2019-04-27T12:09:25.456Z,19.35
2019-04-27T12:11:53.752Z,19.36
2019-04-27T12:14:22.015Z,18.92
2019-04-27T12:16:50.303Z,18.96
2019-04-27T12:19:18.559Z,18.61
2019-04-27T12:21:46.833Z,18.86
2019-04-27T12:24:16.105Z,18.77
2019-04-27T12:27:05.781Z,18.88
2019-04-27T12:29:53.321Z,17.93
2019-04-27T12:32:21.976Z,17.95
2019-04-27T12:34:50.251Z,17.80
2019-04-27T12:37:18.528Z,17.96
2019-04-27T12:39:46.808Z,18.09
2019-04-27T12:42:16.043Z,17.97
2019-04-27T12:44:45.111Z,18.17
2019-04-27T12:47:13.383Z,18.38
2019-04-27T12:49:41.659Z,18.27
2019-04-27T12:52:09.939Z,18.27
2019-04-27T12:54:57.321Z,18.18
2019-04-27T12:57:44.716Z,18.31
2019-04-27T13:00:46.247Z,18.00
2019-04-27T13:03:16.086Z,18.21
2019-04-27T13:08:13.678Z,17.87
2019-04-27T13:10:42.017Z,17.72
2019-04-27T13:13:10.297Z,17.79
2019-04-27T13:15:38.569Z,17.74
2019-04-27T13:18:06.839Z,17.53
2019-04-27T13:20:35.882Z,17.59
2019-04-27T13:23:07.089Z,17.59
2019-04-27T13:25:38.229Z,17.53
2019-04-27T13:28:05.712Z,17.67
2019-04-27T13:30:35.783Z,17.67
2019-04-27T13:33:05.319Z,17.55
2019-04-27T13:36:13.647Z,17.70
2019-04-27T13:38:41.912Z,17.74
2019-04-27T13:43:49.141Z,17.92
2019-04-27T13:46:36.531Z,17.67
2019-04-27T13:49:24.013Z,17.59
2019-04-27T13:54:31.235Z,17.81
2019-04-27T13:56:59.515Z,17.77
2019-04-27T13:59:27.790Z,17.78
2019-04-27T14:01:56.059Z,17.61
2019-04-27T14:04:24.329Z,17.54
2019-04-27T14:06:52.671Z,17.39
2019-04-27T14:09:20.960Z,16.53
2019-04-27T14:11:49.219Z,15.93
2019-04-27T14:14:18.433Z,15.43
2019-04-27T14:17:07.869Z,14.61
2019-04-27T14:19:36.819Z,14.61
2019-04-27T14:22:05.083Z,13.48
2019-04-27T14:24:52.531Z,13.01
2019-04-27T14:30:49.739Z,12.43
2019-04-27T14:33:18.581Z,12.50
2019-04-27T14:35:49.820Z,12.31
2019-04-27T14:38:19.135Z,12.37
2019-04-27T14:40:50.270Z,12.39
2019-04-27T14:43:18.948Z,12.45
2019-04-27T14:45:48.563Z,12.60
2019-04-27T14:48:18.510Z,12.40
2019-04-27T14:50:48.558Z,12.51
2019-04-27T14:53:17.993Z,12.42
2019-04-27T14:55:46.263Z,12.50
2019-04-27T14:58:14.554Z,12.36
2019-04-27T15:00:42.825Z,12.09
2019-04-27T15:03:11.091Z,12.03
2019-04-27T15:05:39.370Z,11.97
2019-04-27T15:08:09.698Z,11.84
2019-04-27T15:10:37.656Z,12.01
2019-04-27T15:13:07.943Z,12.05
2019-04-27T15:15:35.962Z,12.00
2019-04-27T15:18:05.596Z,12.02
2019-04-27T15:23:13.276Z,12.29
2019-04-27T15:25:45.196Z,12.18
2019-04-27T15:31:22.442Z,12.49
2019-04-27T15:33:59.010Z,12.53
2019-04-27T15:36:46.362Z,12.69
2019-04-27T15:39:33.752Z,12.78
2019-04-27T15:44:50.987Z,12.78
2019-04-27T15:47:20.269Z,12.81
2019-04-27T15:49:51.080Z,12.92
2019-04-27T15:52:19.276Z,12.74
2019-04-27T15:54:48.102Z,12.82
2019-04-27T16:02:58.309Z,12.67
2019-04-27T16:05:28.718Z,12.72
2019-04-27T16:08:15.136Z,12.50
2019-04-27T16:10:40.288Z,12.50
2019-04-27T16:15:58.406Z,12.84
2019-04-27T16:21:14.810Z,12.83
2019-04-27T16:23:43.508Z,12.72
2019-04-27T16:26:14.976Z,12.77
2019-04-27T16:28:43.169Z,12.92
2019-04-27T16:31:11.768Z,12.94
2019-04-27T16:33:40.452Z,12.87
2019-04-27T16:36:09.693Z,12.87
2019-04-27T16:41:28.180Z,13.14
2019-04-27T16:43:58.207Z,13.00
2019-04-27T16:46:28.534Z,13.01
2019-04-27T16:48:59.433Z,12.95
2019-04-27T16:51:29.733Z,13.03
2019-04-27T16:53:58.450Z,13.10
2019-04-27T16:56:28.497Z,12.98
2019-04-27T16:59:11.478Z,13.04
2019-04-27T17:04:11.373Z,13.07
2019-04-27T17:06:39.125Z,12.87
2019-04-27T17:09:09.211Z,12.83
2019-04-27T17:11:38.792Z,12.79
2019-04-27T17:22:03.651Z,12.75
2019-04-27T17:27:11.592Z,12.63
2019-04-27T17:30:01.686Z,12.82
2019-04-27T17:32:51.068Z,12.82
2019-04-27T17:35:19.347Z,12.72
2019-04-27T17:37:48.861Z,12.77
2019-04-27T17:40:17.682Z,12.77
2019-04-27T17:42:45.953Z,12.78
2019-04-27T17:45:14.305Z,12.69
2019-04-27T17:47:42.581Z,12.71
2019-04-27T17:50:50.890Z,12.70
2019-04-27T17:53:20.427Z,12.72
2019-04-27T17:55:49.173Z,12.73
2019-04-27T17:58:18.047Z,12.63
2019-04-27T18:03:17.591Z,12.70
2019-04-27T18:05:50.066Z,12.52
2019-04-27T18:08:19.994Z,12.48
2019-04-27T18:10:46.635Z,12.35
2019-04-27T18:13:18.993Z,12.23
2019-04-27T18:15:45.669Z,11.91
2019-04-27T18:18:34.064Z,11.79
2019-04-27T18:21:02.341Z,11.74
2019-04-27T18:26:56.414Z,11.58
2019-04-27T18:29:22.840Z,11.61
2019-04-27T18:31:54.559Z,11.39
2019-04-27T18:34:21.318Z,11.25
2019-04-27T18:36:49.611Z,11.18
2019-04-27T18:39:18.255Z,11.32
2019-04-27T18:41:50.576Z,11.39
2019-04-27T18:44:19.143Z,11.33
2019-04-27T18:46:48.926Z,11.13
2019-04-27T18:49:38.629Z,11.01
2019-04-27T18:52:26.190Z,11.05
2019-04-27T18:54:54.468Z,10.92
2019-04-27T18:57:22.736Z,10.79
2019-04-27T18:59:51.020Z,10.88
2019-04-27T19:02:19.302Z,10.82
2019-04-27T19:04:49.948Z,10.80
2019-04-27T19:07:17.580Z,10.79
2019-04-27T19:09:47.721Z,10.94
2019-04-27T19:12:15.858Z,10.93
2019-04-27T19:14:44.153Z,10.89
2019-04-27T19:17:12.435Z,10.85
2019-04-27T19:19:40.747Z,10.81
2019-04-27T19:22:09.098Z,10.77
2019-04-27T19:24:37.383Z,10.68
2019-04-27T19:27:44.137Z,10.72
2019-04-27T19:30:31.609Z,10.72
2019-04-27T19:32:59.902Z,10.83
2019-04-27T19:35:28.745Z,10.88
2019-04-27T19:37:59.017Z,10.96
2019-04-27T19:40:29.039Z,10.81
2019-04-27T19:42:58.838Z,10.77
2019-04-27T19:45:29.124Z,10.68
2019-04-27T19:47:57.295Z,10.67
2019-04-27T19:50:25.565Z,10.60
2019-04-27T19:52:53.869Z,10.62
2019-04-27T19:55:22.154Z,10.51
2019-04-27T19:57:50.441Z,10.56
2019-04-27T20:01:09.682Z,10.33
2019-04-27T20:06:16.144Z,10.30
2019-04-27T20:09:03.540Z,10.41
2019-04-27T20:11:31.832Z,10.35
2019-04-27T20:14:00.803Z,10.20
2019-04-27T20:16:31.777Z,10.15
2019-04-27T20:19:01.480Z,10.04
2019-04-27T20:21:31.108Z,10.00
2019-04-27T20:23:59.380Z,9.99
2019-04-27T20:26:27.658Z,9.96
2019-04-27T20:28:55.927Z,9.91
2019-04-27T20:31:24.201Z,9.73
2019-04-27T20:33:53.969Z,9.57
2019-04-27T20:36:22.482Z,9.65
2019-04-27T20:38:50.998Z,9.56
2019-04-27T20:41:21.830Z,9.60
2019-04-27T20:43:51.058Z,9.60
2019-04-27T20:46:22.668Z,9.48
2019-04-27T20:48:51.239Z,9.51
2019-04-27T20:54:11.514Z,9.50
2019-04-27T20:56:39.693Z,9.54
2019-04-27T20:59:07.954Z,9.58
2019-04-27T21:01:36.227Z,9.55
2019-04-27T21:04:04.500Z,9.50
2019-04-27T21:06:51.903Z,9.37
2019-04-27T21:09:21.323Z,9.43
2019-04-27T21:11:50.169Z,9.53
2019-04-27T21:14:18.435Z,9.46
2019-04-27T21:19:25.652Z,9.46
2019-04-27T21:21:53.937Z,9.32
2019-04-27T21:24:22.788Z,9.29
2019-04-27T21:26:52.210Z,9.37
2019-04-27T21:29:20.986Z,9.39
2019-04-27T21:31:51.994Z,9.32
2019-04-27T21:34:20.458Z,9.29
2019-04-27T21:36:48.739Z,9.32
2019-04-27T21:39:16.988Z,9.23
2019-04-27T21:41:45.277Z,9.19
2019-04-27T21:44:13.538Z,9.14
2019-04-27T21:46:41.845Z,9.11
2019-04-27T21:49:12.447Z,9.10
2019-04-27T21:52:01.229Z,9.10
2019-04-27T21:57:08.144Z,8.99
2019-04-27T21:59:36.412Z,8.82
2019-04-27T22:04:43.809Z,8.77
2019-04-27T22:07:12.061Z,8.74
2019-04-27T22:09:43.054Z,8.84
2019-04-27T22:12:11.234Z,8.82
2019-04-27T22:14:40.320Z,8.72
2019-04-27T22:17:08.602Z,8.58
2019-04-27T22:19:36.872Z,8.66
2019-04-27T22:24:44.092Z,8.78
2019-04-27T22:27:12.354Z,8.76
2019-04-27T22:29:40.646Z,8.84
2019-04-27T22:32:08.914Z,8.83
2019-04-27T22:34:37.168Z,8.88
2019-04-27T22:37:05.447Z,8.91
2019-04-27T22:42:31.773Z,8.70
2019-04-27T22:47:47.742Z,8.62
2019-04-27T22:50:16.013Z,8.84
2019-04-27T22:52:44.270Z,8.81
2019-04-27T22:55:12.542Z,8.88
2019-04-27T23:00:48.887Z,8.97
2019-04-27T23:06:06.108Z,8.82
2019-04-27T23:08:34.384Z,8.78
2019-04-27T23:11:02.825Z,8.78
2019-04-27T23:13:31.164Z,8.92
2019-04-27T23:18:48.387Z,9.04
2019-04-27T23:21:16.670Z,9.12
2019-04-27T23:23:44.936Z,9.19
2019-04-27T23:26:13.225Z,9.19
2019-04-27T23:28:41.494Z,9.15
2019-04-27T23:36:27.662Z,9.24
2019-04-27T23:38:55.920Z,9.27
2019-04-27T23:41:24.277Z,9.20
2019-04-27T23:43:52.563Z,9.14
2019-04-27T23:46:21.486Z,9.19
2019-04-27T23:48:52.061Z,9.25
2019-04-27T23:51:39.942Z,9.20
2019-04-27T23:54:08.231Z,9.21
2019-04-27T23:56:36.499Z,9.25
2019-04-27T23:59:04.857Z,9.17
